createdAt,value
2023-03-20T00:00:59.459Z,101318.72
2023-03-20T00:03:27.550Z,101324.53
2023-03-20T00:05:54.243Z,101321.25
2023-03-20T00:08:21.005Z,101327.75
2023-03-20T00:10:47.678Z,101321.81
2023-03-20T00:13:21.141Z,101321.50
2023-03-20T00:15:47.826Z,101322.22
2023-03-20T00:18:20.436Z,101323.47
2023-03-20T00:20:47.435Z,101310.97
2023-03-20T00:23:14.298Z,101318.19
2023-03-20T00:25:42.380Z,101322.81
2023-03-20T00:28:41.770Z,101322.22
2023-03-20T00:31:28.974Z,101315.03
2023-03-20T00:33:58.290Z,101310.31
2023-03-20T00:36:25.504Z,101321.47
2023-03-20T00:38:52.598Z,101321.41
2023-03-20T00:41:29.030Z,101319.56
2023-03-20T00:44:00.952Z,101308.63
2023-03-20T00:46:29.306Z,101318.84
2023-03-20T00:48:56.050Z,101314.72
2023-03-20T00:51:22.708Z,101314.59
2023-03-20T00:53:49.269Z,101308.34
2023-03-20T00:56:40.528Z,101307.28
2023-03-20T00:59:13.859Z,101304.28
2023-03-20T01:01:40.547Z,101307.09
2023-03-20T01:04:14.116Z,101308.78
2023-03-20T01:06:40.933Z,101302.84
2023-03-20T01:09:07.842Z,101304.53
2023-03-20T01:11:35.307Z,101298.44
2023-03-20T01:14:02.277Z,101298.94
2023-03-20T01:16:29.006Z,101298.22
2023-03-20T01:18:55.855Z,101291.41
2023-03-20T01:21:22.564Z,101300.81
2023-03-20T01:23:50.588Z,101295.16
2023-03-20T01:26:54.770Z,101301.63
2023-03-20T01:29:27.690Z,101299.94
2023-03-20T01:31:54.687Z,101299.22
2023-03-20T01:34:21.375Z,101285.22
2023-03-20T01:36:53.964Z,101286.31
2023-03-20T01:39:24.369Z,101298.50
2023-03-20T01:41:53.051Z,101296.53
2023-03-20T01:44:31.114Z,101290.63
2023-03-20T01:46:58.903Z,101283.69
2023-03-20T01:49:25.493Z,101277.34
2023-03-20T01:51:52.593Z,101277.06
2023-03-20T01:54:24.291Z,101277.94
2023-03-20T01:57:08.844Z,101276.53
2023-03-20T01:59:46.144Z,101272.75
2023-03-20T02:02:17.667Z,101269.56
2023-03-20T02:04:47.983Z,101268.88
2023-03-20T02:07:18.374Z,101268.13
2023-03-20T02:09:47.922Z,101274.75
2023-03-20T02:12:15.145Z,101261.75
2023-03-20T02:14:41.761Z,101261.31
2023-03-20T02:17:10.508Z,101267.91
2023-03-20T02:19:48.775Z,101272.03
2023-03-20T02:22:18.309Z,101274.94
2023-03-20T02:24:53.647Z,101278.78
2023-03-20T02:28:10.008Z,101278.97
2023-03-20T02:31:10.639Z,101276.47
2023-03-20T02:33:58.907Z,101278.88
2023-03-20T02:36:41.206Z,101280.72
2023-03-20T02:39:36.213Z,101272.78
2023-03-20T02:42:26.850Z,101272.25
2023-03-20T02:45:18.072Z,101266.00
2023-03-20T02:48:14.274Z,101274.69
2023-03-20T02:51:01.792Z,101267.28
2023-03-20T02:53:56.837Z,101260.03
2023-03-20T02:56:36.936Z,101271.09
2023-03-20T02:59:40.795Z,101260.59
2023-03-20T03:02:12.791Z,101265.97
2023-03-20T03:05:01.043Z,101262.56
2023-03-20T03:07:33.238Z,101248.22
2023-03-20T03:10:11.637Z,101245.22
2023-03-20T03:12:43.372Z,101246.44
2023-03-20T03:15:36.764Z,101242.66
2023-03-20T03:18:06.695Z,101248.41
2023-03-20T03:20:38.210Z,101252.81
2023-03-20T03:23:06.669Z,101257.09
2023-03-20T03:25:38.142Z,101250.84
2023-03-20T03:28:16.098Z,101249.97
2023-03-20T03:30:45.209Z,101247.44
2023-03-20T03:33:11.821Z,101245.72
2023-03-20T03:35:40.227Z,101241.91
2023-03-20T03:38:28.682Z,101242.88
2023-03-20T03:41:14.358Z,101232.88
2023-03-20T03:43:52.384Z,101237.72
2023-03-20T03:46:35.788Z,101239.88
2023-03-20T03:49:05.886Z,101246.69
2023-03-20T03:51:37.383Z,101239.78
2023-03-20T03:54:11.613Z,101250.38
2023-03-20T03:56:40.817Z,101248.41
2023-03-20T03:59:20.778Z,101244.72
2023-03-20T04:01:50.876Z,101248.88
2023-03-20T04:04:20.492Z,101242.78
2023-03-20T04:06:47.343Z,101242.50
2023-03-20T04:09:13.994Z,101239.66
2023-03-20T04:11:40.954Z,101242.50
2023-03-20T04:14:07.874Z,101246.47
2023-03-20T04:16:34.604Z,101234.59
2023-03-20T04:19:01.225Z,101231.91
2023-03-20T04:21:27.811Z,101224.00
2023-03-20T04:23:54.345Z,101232.06
2023-03-20T04:26:21.795Z,101234.88
2023-03-20T04:28:48.361Z,101236.56
2023-03-20T04:31:14.970Z,101238.28
2023-03-20T04:33:41.987Z,101241.81
2023-03-20T04:36:09.052Z,101233.75
2023-03-20T04:38:35.949Z,101233.16
2023-03-20T04:41:03.478Z,101229.50
2023-03-20T04:43:30.267Z,101238.84
2023-03-20T04:45:57.021Z,101249.53
2023-03-20T04:48:23.727Z,101247.84
2023-03-20T04:50:51.019Z,101241.75
2023-03-20T04:53:18.393Z,101245.00
2023-03-20T04:55:45.929Z,101245.25
2023-03-20T04:58:12.687Z,101252.34
2023-03-20T05:00:39.290Z,101250.38
2023-03-20T05:03:05.887Z,101245.25
2023-03-20T05:05:33.431Z,101241.75
2023-03-20T05:08:00.135Z,101244.34
2023-03-20T05:10:26.776Z,101245.00
2023-03-20T05:12:53.406Z,101252.47
2023-03-20T05:15:20.035Z,101252.47
2023-03-20T05:17:47.370Z,101248.78
2023-03-20T05:20:14.310Z,101246.97
2023-03-20T05:22:40.988Z,101246.09
2023-03-20T05:25:08.141Z,101238.31
2023-03-20T05:27:34.722Z,101240.53
2023-03-20T05:30:01.266Z,101241.78
2023-03-20T05:32:27.814Z,101233.88
2023-03-20T05:34:54.469Z,101242.31
2023-03-20T05:37:21.054Z,101252.50
2023-03-20T05:39:47.728Z,101262.28
2023-03-20T05:42:14.320Z,101258.88
2023-03-20T05:44:41.210Z,101263.63
2023-03-20T05:47:07.817Z,101257.31
2023-03-20T05:49:34.373Z,101266.91
2023-03-20T05:52:01.125Z,101274.75
2023-03-20T05:54:27.707Z,101275.28
2023-03-20T05:56:54.415Z,101272.09
2023-03-20T05:59:21.100Z,101282.47
2023-03-20T06:01:47.689Z,101277.22
2023-03-20T06:04:14.219Z,101280.38
2023-03-20T06:06:42.009Z,101299.25
2023-03-20T06:09:08.720Z,101292.03
2023-03-20T06:11:37.448Z,101305.34
2023-03-20T06:14:04.179Z,101313.03
2023-03-20T06:16:31.093Z,101314.13
2023-03-20T06:18:58.372Z,101318.16
2023-03-20T06:21:25.068Z,101326.22
2023-03-20T06:23:51.950Z,101326.94
2023-03-20T06:26:18.591Z,101329.34
2023-03-20T06:28:45.357Z,101336.66
2023-03-20T06:31:12.381Z,101340.25
2023-03-20T06:33:40.227Z,101329.72
2023-03-20T06:36:06.962Z,101341.75
2023-03-20T06:38:33.547Z,101331.72
2023-03-20T06:41:00.177Z,101329.03
2023-03-20T06:43:26.827Z,101333.69
2023-03-20T06:45:53.538Z,101335.44
2023-03-20T06:48:22.940Z,101321.72
2023-03-20T06:50:53.073Z,101335.38
2023-03-20T06:53:20.046Z,101322.56
2023-03-20T06:55:51.688Z,101334.88
2023-03-20T06:58:18.734Z,101347.06
2023-03-20T07:00:46.590Z,101343.03
2023-03-20T07:03:13.566Z,101347.81
2023-03-20T07:05:40.428Z,101362.44
2023-03-20T07:08:10.314Z,101353.53
2023-03-20T07:10:38.034Z,101358.06
2023-03-20T07:13:04.724Z,101353.78
2023-03-20T07:15:32.422Z,101365.59
2023-03-20T07:17:59.065Z,101367.13
2023-03-20T07:20:25.612Z,101365.47
2023-03-20T07:22:52.364Z,101358.19
2023-03-20T07:25:23.991Z,101364.13
2023-03-20T07:27:59.267Z,101366.66
2023-03-20T07:30:26.008Z,101365.16
2023-03-20T07:32:52.677Z,101361.94
2023-03-20T07:35:19.330Z,101359.56
2023-03-20T07:37:46.103Z,101370.06
2023-03-20T07:40:13.024Z,101357.78
2023-03-20T07:42:39.745Z,101368.31
2023-03-20T07:45:07.003Z,101360.59
2023-03-20T07:47:33.736Z,101362.59
2023-03-20T07:50:00.566Z,101361.88
2023-03-20T07:52:27.246Z,101368.25
2023-03-20T07:54:53.838Z,101367.34
2023-03-20T07:57:20.502Z,101377.34
2023-03-20T07:59:47.275Z,101368.16
2023-03-20T08:02:18.023Z,101361.22
2023-03-20T08:04:46.414Z,101365.00
2023-03-20T08:07:12.997Z,101371.34
2023-03-20T08:09:39.887Z,101368.47
2023-03-20T08:12:07.325Z,101371.09
2023-03-20T08:14:34.182Z,101367.50
2023-03-20T08:17:13.606Z,101370.53
2023-03-20T08:19:41.350Z,101365.53
2023-03-20T08:22:08.005Z,101366.56
2023-03-20T08:24:34.678Z,101368.22
2023-03-20T08:27:01.203Z,101374.50
2023-03-20T08:29:27.880Z,101366.47
2023-03-20T08:31:54.490Z,101364.00
2023-03-20T08:34:23.869Z,101368.75
2023-03-20T08:36:52.447Z,101376.06
2023-03-20T08:39:18.908Z,101374.75
2023-03-20T08:41:45.904Z,101374.00
2023-03-20T08:44:13.814Z,101369.91
2023-03-20T08:46:40.622Z,101367.66
2023-03-20T08:49:07.250Z,101355.63
2023-03-20T08:51:34.017Z,101371.56
2023-03-20T08:54:00.728Z,101365.28
2023-03-20T08:56:27.397Z,101373.91
2023-03-20T08:58:56.124Z,101380.13
2023-03-20T09:01:23.289Z,101378.44
2023-03-20T09:03:49.853Z,101366.88
2023-03-20T09:06:16.588Z,101374.78
2023-03-20T09:08:43.283Z,101375.59
2023-03-20T09:11:09.902Z,101364.69
2023-03-20T09:13:36.569Z,101367.41
2023-03-20T09:16:03.754Z,101369.44
2023-03-20T09:18:30.713Z,101371.13
2023-03-20T09:20:57.305Z,101376.16
2023-03-20T09:23:23.957Z,101371.66
2023-03-20T09:25:50.581Z,101368.13
2023-03-20T09:28:17.159Z,101374.75
2023-03-20T09:30:44.259Z,101370.53
2023-03-20T09:33:11.354Z,101368.59
2023-03-20T09:35:38.221Z,101374.56
2023-03-20T09:38:04.802Z,101373.66
2023-03-20T09:40:52.608Z,101363.91
2023-03-20T09:43:44.688Z,101369.13
2023-03-20T09:46:26.333Z,101371.38
2023-03-20T09:49:16.080Z,101378.81
2023-03-20T09:51:56.158Z,101374.69
2023-03-20T09:54:27.058Z,101370.78
2023-03-20T09:56:56.593Z,101378.81
2023-03-20T09:59:25.688Z,101380.44
2023-03-20T10:01:59.932Z,101380.25
2023-03-20T10:04:29.408Z,101385.53
2023-03-20T10:06:59.394Z,101378.81
2023-03-20T10:09:28.999Z,101375.25
2023-03-20T10:12:10.823Z,101374.47
2023-03-20T10:14:43.005Z,101370.78
2023-03-20T10:17:43.556Z,101365.75
2023-03-20T10:20:28.771Z,101368.25
2023-03-20T10:23:04.438Z,101354.94
2023-03-20T10:25:34.507Z,101352.66
2023-03-20T10:28:06.262Z,101347.09
2023-03-20T10:30:50.666Z,101359.03
2023-03-20T10:33:27.056Z,101360.59
2023-03-20T10:35:59.790Z,101358.94
2023-03-20T10:38:29.464Z,101349.25
2023-03-20T10:40:58.192Z,101348.03
2023-03-20T10:43:30.972Z,101340.59
2023-03-20T10:46:13.414Z,101348.22
2023-03-20T10:48:49.525Z,101343.25
2023-03-20T10:51:22.381Z,101342.97
2023-03-20T10:53:57.548Z,101333.78
2023-03-20T10:56:32.479Z,101328.25
2023-03-20T10:59:22.275Z,101330.66
2023-03-20T11:01:48.938Z,101324.63
2023-03-20T11:04:15.554Z,101313.16
2023-03-20T11:07:03.362Z,101297.19
2023-03-20T11:09:31.190Z,101301.72
2023-03-20T11:11:59.361Z,101301.75
2023-03-20T11:14:32.130Z,101303.19
2023-03-20T11:17:02.036Z,101298.66
2023-03-20T11:19:34.333Z,101294.22
2023-03-20T11:22:07.228Z,101299.03
2023-03-20T11:24:44.859Z,101292.53
2023-03-20T11:27:18.536Z,101287.06
2023-03-20T11:29:49.118Z,101290.41
2023-03-20T11:32:39.444Z,101279.38
2023-03-20T11:35:24.138Z,101290.19
2023-03-20T11:37:53.212Z,101287.84
2023-03-20T11:40:33.808Z,101289.38
2023-03-20T11:43:00.441Z,101277.69
2023-03-20T11:45:35.773Z,101275.03
2023-03-20T11:48:04.165Z,101273.72
2023-03-20T11:50:36.748Z,101277.09
2023-03-20T11:53:20.306Z,101270.97
2023-03-20T11:56:10.995Z,101264.50
2023-03-20T11:58:56.829Z,101257.91
2023-03-20T12:01:24.860Z,101250.91
2023-03-20T12:04:11.455Z,101248.06
2023-03-20T12:06:51.377Z,101249.00
2023-03-20T12:09:38.090Z,101256.69
2023-03-20T12:12:42.924Z,101245.00
2023-03-20T12:15:45.089Z,101244.72
2023-03-20T12:18:29.122Z,101238.06
2023-03-20T12:21:12.880Z,101235.44
2023-03-20T12:23:58.225Z,101235.03
2023-03-20T12:26:34.734Z,101224.31
2023-03-20T12:29:51.766Z,101227.53
2023-03-20T12:32:31.065Z,101230.44
2023-03-20T12:35:11.068Z,101212.88
2023-03-20T12:37:37.893Z,101216.34
2023-03-20T12:40:05.211Z,101217.47
2023-03-20T12:42:51.179Z,101222.34
2023-03-20T12:45:20.191Z,101224.25
2023-03-20T12:48:18.325Z,101226.25
2023-03-20T12:50:47.956Z,101215.06
2023-03-20T12:53:44.876Z,101226.88
2023-03-20T12:56:30.190Z,101222.97
2023-03-20T12:59:14.660Z,101212.28
2023-03-20T13:02:00.330Z,101212.72
2023-03-20T13:04:50.144Z,101215.56
2023-03-20T13:07:41.343Z,101218.50
2023-03-20T13:10:39.839Z,101212.56
2023-03-20T13:13:25.704Z,101212.72
2023-03-20T13:16:18.999Z,101211.03
2023-03-20T13:18:52.895Z,101194.25
2023-03-20T13:21:42.712Z,101219.78
2023-03-20T13:24:22.731Z,101204.25
2023-03-20T13:27:01.870Z,101200.16
2023-03-20T13:29:40.319Z,101195.41
2023-03-20T13:32:16.060Z,101204.03
2023-03-20T13:34:42.607Z,101200.94
2023-03-20T13:37:24.429Z,101205.56
2023-03-20T13:40:15.902Z,101189.38
2023-03-20T13:42:50.461Z,101195.59
2023-03-20T13:45:35.077Z,101183.88
2023-03-20T13:48:19.803Z,101195.69
2023-03-20T13:50:59.763Z,101189.56
2023-03-20T13:53:35.250Z,101189.66
2023-03-20T13:56:43.025Z,101192.00
2023-03-20T13:59:30.860Z,101183.66
2023-03-20T14:02:07.744Z,101184.41
2023-03-20T14:04:35.323Z,101183.50
2023-03-20T14:07:01.908Z,101186.59
2023-03-20T14:09:35.852Z,101187.50
2023-03-20T14:12:12.243Z,101187.78
2023-03-20T14:14:53.967Z,101181.66
2023-03-20T14:17:26.465Z,101184.31
2023-03-20T14:19:54.719Z,101185.44
2023-03-20T14:22:34.314Z,101172.97
2023-03-20T14:25:09.438Z,101178.78
2023-03-20T14:27:59.731Z,101183.19
2023-03-20T14:30:32.097Z,101182.84
2023-03-20T14:33:00.291Z,101188.47
2023-03-20T14:35:29.048Z,101183.94
2023-03-20T14:38:07.722Z,101181.47
2023-03-20T14:40:41.206Z,101176.91
2023-03-20T14:43:20.004Z,101183.31
2023-03-20T14:45:58.713Z,101172.22
2023-03-20T14:48:45.947Z,101176.22
2023-03-20T14:51:31.026Z,101173.28
2023-03-20T14:54:24.267Z,101186.13
2023-03-20T14:56:52.011Z,101189.41
2023-03-20T14:59:22.643Z,101180.84
2023-03-20T15:01:58.980Z,101175.00
2023-03-20T15:04:28.290Z,101180.19
2023-03-20T15:06:59.352Z,101173.63
2023-03-20T15:09:29.468Z,101178.59
2023-03-20T15:12:04.193Z,101177.97
2023-03-20T15:14:42.402Z,101165.84
2023-03-20T15:17:36.979Z,101177.72
2023-03-20T15:20:19.352Z,101169.22
2023-03-20T15:23:00.996Z,101174.25
2023-03-20T15:25:40.225Z,101177.63
2023-03-20T15:28:09.293Z,101173.63
2023-03-20T15:30:39.171Z,101181.63
2023-03-20T15:33:07.301Z,101179.97
2023-03-20T15:35:34.370Z,101182.88
2023-03-20T15:38:06.524Z,101187.16
2023-03-20T15:40:50.238Z,101183.75
2023-03-20T15:43:24.869Z,101193.50
2023-03-20T15:46:02.887Z,101183.16
2023-03-20T15:48:36.883Z,101185.63
2023-03-20T15:51:05.597Z,101174.63
2023-03-20T15:53:34.634Z,101187.25
2023-03-20T15:56:18.351Z,101161.38
2023-03-20T15:58:47.772Z,101177.16
2023-03-20T16:01:19.245Z,101185.22
2023-03-20T16:03:46.500Z,101176.97
2023-03-20T16:06:16.549Z,101186.31
2023-03-20T16:08:45.601Z,101182.59
2023-03-20T16:11:17.538Z,101182.03
2023-03-20T16:13:47.070Z,101181.88
2023-03-20T16:16:21.193Z,101188.69
2023-03-20T16:18:48.599Z,101174.78
2023-03-20T16:21:36.980Z,101184.13
2023-03-20T16:24:16.073Z,101181.28
2023-03-20T16:29:42.467Z,101182.00
2023-03-20T16:32:27.705Z,101196.59
2023-03-20T16:34:57.805Z,101190.69
2023-03-20T16:37:30.573Z,101198.50
2023-03-20T16:40:18.398Z,101204.78
2023-03-20T16:42:46.184Z,101204.84
2023-03-20T16:45:22.693Z,101206.72
2023-03-20T16:47:50.801Z,101209.94
2023-03-20T16:50:19.573Z,101203.66
2023-03-20T16:52:52.282Z,101209.28
2023-03-20T16:55:26.663Z,101208.63
2023-03-20T16:58:03.674Z,101196.91
2023-03-20T17:01:03.886Z,101213.38
2023-03-20T17:03:40.436Z,101206.94
2023-03-20T17:06:28.031Z,101216.25
2023-03-20T17:09:16.123Z,101222.47
2023-03-20T17:11:49.257Z,101219.06
2023-03-20T17:14:16.699Z,101229.19
2023-03-20T17:16:44.126Z,101220.03
2023-03-20T17:19:17.503Z,101226.31
2023-03-20T17:21:45.972Z,101221.34
2023-03-20T17:24:14.395Z,101233.53
2023-03-20T17:26:43.183Z,101226.06
2023-03-20T17:29:13.796Z,101235.31
2023-03-20T17:31:40.408Z,101240.34
2023-03-20T17:34:07.136Z,101237.47
2023-03-20T17:36:35.178Z,101235.41
2023-03-20T17:39:02.235Z,101236.19
2023-03-20T17:41:29.164Z,101238.03
2023-03-20T17:43:56.699Z,101237.09
2023-03-20T17:46:29.242Z,101249.06
2023-03-20T17:49:02.437Z,101241.59
2023-03-20T17:51:29.852Z,101251.72
2023-03-20T17:53:57.926Z,101245.78
2023-03-20T17:56:30.127Z,101245.94
2023-03-20T17:58:57.559Z,101244.56
2023-03-20T18:01:24.579Z,101253.00
2023-03-20T18:03:51.276Z,101243.97
2023-03-20T18:06:35.712Z,101259.72
2023-03-20T18:09:02.882Z,101260.72
2023-03-20T18:11:29.615Z,101258.34
2023-03-20T18:13:56.355Z,101258.66
2023-03-20T18:16:25.373Z,101257.25
2023-03-20T18:18:53.202Z,101257.59
2023-03-20T18:21:20.254Z,101267.38
2023-03-20T18:23:47.081Z,101259.59
2023-03-20T18:26:25.620Z,101257.06
2023-03-20T18:28:54.440Z,101256.84
2023-03-20T18:31:21.411Z,101264.53
2023-03-20T18:33:49.892Z,101266.19
2023-03-20T18:36:19.143Z,101262.78
2023-03-20T18:38:46.555Z,101272.06
2023-03-20T18:41:13.655Z,101282.94
2023-03-20T18:43:40.741Z,101277.31
2023-03-20T18:46:13.211Z,101273.50
2023-03-20T18:48:39.901Z,101274.69
2023-03-20T18:51:06.673Z,101275.28
2023-03-20T18:53:33.254Z,101276.88
2023-03-20T18:56:00.723Z,101277.13
2023-03-20T18:58:29.820Z,101286.50
2023-03-20T19:00:59.600Z,101283.53
2023-03-20T19:03:28.596Z,101288.41
2023-03-20T19:05:57.931Z,101296.09
2023-03-20T19:08:25.117Z,101281.47
2023-03-20T19:10:52.246Z,101295.66
2023-03-20T19:13:21.141Z,101293.44
2023-03-20T19:15:47.728Z,101291.47
2023-03-20T19:18:20.298Z,101296.16
2023-03-20T19:20:57.848Z,101300.16
2023-03-20T19:23:27.206Z,101299.59
2023-03-20T19:25:55.271Z,101301.44
2023-03-20T19:28:40.066Z,101298.50
2023-03-20T19:31:09.605Z,101300.09
2023-03-20T19:33:38.467Z,101304.50
2023-03-20T19:36:06.654Z,101307.78
2023-03-20T19:38:34.718Z,101313.22
2023-03-20T19:41:03.717Z,101313.09
2023-03-20T19:43:30.412Z,101310.97
2023-03-20T19:45:59.259Z,101314.94
2023-03-20T19:48:46.218Z,101319.78
2023-03-20T19:51:19.446Z,101317.66
2023-03-20T19:53:47.503Z,101319.78
2023-03-20T19:56:15.655Z,101321.34
2023-03-20T19:58:43.403Z,101326.19
2023-03-20T20:01:15.901Z,101320.78
2023-03-20T20:03:43.078Z,101330.25
2023-03-20T20:06:09.947Z,101315.91
2023-03-20T20:08:48.009Z,101332.50
2023-03-20T20:11:16.898Z,101328.25
2023-03-20T20:14:04.198Z,101330.94
2023-03-20T20:16:30.804Z,101331.38
2023-03-20T20:18:57.435Z,101335.03
2023-03-20T20:24:10.809Z,101336.00
2023-03-20T20:26:41.245Z,101330.06
2023-03-20T20:29:14.465Z,101326.06
2023-03-20T20:31:41.073Z,101331.00
2023-03-20T20:35:07.281Z,101334.41
2023-03-20T20:39:41.080Z,101332.22
2023-03-20T20:42:07.804Z,101334.47
2023-03-20T20:44:34.755Z,101329.19
2023-03-20T20:47:01.454Z,101330.72
2023-03-20T20:49:28.016Z,101324.63
2023-03-20T20:51:54.644Z,101328.56
2023-03-20T20:54:21.378Z,101328.25
2023-03-20T20:56:48.025Z,101317.31
2023-03-20T20:59:14.672Z,101324.00
2023-03-20T21:01:41.410Z,101327.66
2023-03-20T21:04:08.078Z,101333.03
2023-03-20T21:07:05.781Z,101327.81
2023-03-20T21:09:21.279Z,101318.63
2023-03-20T21:11:48.714Z,101310.56
2023-03-20T21:14:15.447Z,101310.28
2023-03-20T21:16:42.082Z,101311.28
2023-03-20T21:19:08.713Z,101310.72
2023-03-20T21:21:37.842Z,101316.84
2023-03-20T21:24:06.686Z,101312.97
2023-03-20T21:26:33.268Z,101324.19
2023-03-20T21:29:00.023Z,101327.13
2023-03-20T21:31:30.862Z,101324.97
2023-03-20T21:33:58.211Z,101326.50
2023-03-20T21:36:25.174Z,101327.88
2023-03-20T21:39:09.061Z,101327.31
2023-03-20T21:41:40.530Z,101331.97
2023-03-20T21:44:08.248Z,101335.75
2023-03-20T21:50:23.275Z,101337.88
2023-03-20T21:52:56.890Z,101338.41
2023-03-20T22:03:47.739Z,101324.81
2023-03-20T22:17:57.467Z,101328.03
2023-03-20T22:20:56.420Z,101316.47
2023-03-20T22:26:44.248Z,101326.22
2023-03-20T22:42:50.749Z,101333.38
2023-03-20T22:45:09.623Z,101333.38
2023-03-20T22:47:36.625Z,101320.06
2023-03-20T22:50:03.882Z,101314.09
2023-03-20T22:52:49.548Z,101318.03
2023-03-20T22:55:17.398Z,101314.63
2023-03-20T22:57:56.186Z,101318.56
2023-03-20T23:00:30.599Z,101323.06
2023-03-20T23:03:06.678Z,101322.34
2023-03-20T23:05:38.883Z,101305.00
2023-03-20T23:08:07.918Z,101310.22
2023-03-20T23:10:37.702Z,101307.22
2023-03-20T23:13:04.704Z,101306.03
2023-03-20T23:15:31.651Z,101302.03
2023-03-20T23:17:58.262Z,101301.31
2023-03-20T23:20:25.506Z,101306.47
2023-03-20T23:22:52.052Z,101291.09
2023-03-20T23:25:35.984Z,101304.19
2023-03-20T23:28:04.907Z,101299.94
2023-03-20T23:30:43.541Z,101297.50
2023-03-20T23:33:11.773Z,101289.00
2023-03-20T23:35:38.420Z,101289.97
2023-03-20T23:38:05.358Z,101283.00
2023-03-20T23:40:32.168Z,101279.34
2023-03-20T23:42:58.684Z,101292.41
2023-03-20T23:45:25.390Z,101287.28
2023-03-20T23:47:51.977Z,101285.81
2023-03-20T23:50:30.377Z,101281.44
2023-03-20T23:53:17.508Z,101284.38
2023-03-20T23:55:47.344Z,101273.91
2023-03-20T23:58:15.721Z,101272.44
